Time;durP1;ratioP1;P1;durP2;ratioP2;P2;SDS_P1;SDS_P2;PMS_P1;PMS_P2;Temp;Humidity;BMP_temperature;BMP_pressure;BME280_temperature;BME280_humidity;BME280_pressure;Samples;Min_cycle;Max_cycle;Signal;HPM_P1;HPM_P2
2023/08/23 00:01:50;;;;;;;2.55;2.03;;;26.10;49.40;;;;;;5116573;28;20036;-80
2023/08/23 00:04:16;;;;;;;2.42;1.70;;;26.10;49.40;;;;;;5115295;28;20055;-80
2023/08/23 00:06:42;;;;;;;1.83;1.67;;;26.00;49.40;;;;;;5116710;28;20058;-80
2023/08/23 00:09:07;;;;;;;2.35;1.98;;;26.00;49.50;;;;;;5116945;28;20378;-80
2023/08/23 00:11:33;;;;;;;2.08;1.88;;;26.00;49.50;;;;;;5115399;28;20040;-81
2023/08/23 00:13:59;;;;;;;2.70;1.90;;;25.90;49.50;;;;;;5115013;28;20032;-80
2023/08/23 00:16:24;;;;;;;2.25;1.85;;;25.90;49.50;;;;;;5116694;28;20028;-80
2023/08/23 00:18:50;;;;;;;2.28;1.80;;;25.90;49.60;;;;;;5117548;28;20067;-80
2023/08/23 00:21:16;;;;;;;2.17;1.80;;;25.90;49.50;;;;;;5115166;28;20056;-80
2023/08/23 00:23:42;;;;;;;2.25;1.95;;;25.90;49.60;;;;;;5116860;28;20043;-80
2023/08/23 00:26:07;;;;;;;1.88;1.77;;;25.90;49.60;;;;;;5116902;28;20023;-80
2023/08/23 00:28:33;;;;;;;1.67;1.52;;;25.90;49.60;;;;;;5114697;28;20020;-80
2023/08/23 00:30:59;;;;;;;1.50;1.40;;;25.80;49.60;;;;;;5116253;28;20023;-81
2023/08/23 00:33:24;;;;;;;3.45;1.65;;;25.90;49.70;;;;;;5117104;28;20058;-80
2023/08/23 00:35:50;;;;;;;1.95;1.67;;;25.80;49.70;;;;;;5115306;28;20041;-80
2023/08/23 00:38:16;;;;;;;2.15;1.60;;;25.80;49.70;;;;;;5114936;28;20068;-80
2023/08/23 00:40:41;;;;;;;2.20;1.85;;;25.70;49.70;;;;;;5116789;28;20046;-80
2023/08/23 00:43:07;;;;;;;1.95;1.58;;;25.70;49.70;;;;;;5116145;28;20032;-81
2023/08/23 00:45:35;;;;;;;2.63;1.80;;;25.70;49.80;;;;;;5116682;28;20019;-80
2023/08/23 00:48:03;;;;;;;2.05;1.85;;;25.60;49.80;;;;;;5116185;28;20068;-80
2023/08/23 00:50:32;;;;;;;1.95;1.73;;;25.60;49.80;;;;;;5115987;28;20381;-80
2023/08/23 00:52:58;;;;;;;1.63;1.52;;;25.60;49.80;;;;;;5114506;28;20040;-80
2023/08/23 00:55:24;;;;;;;2.35;1.80;;;25.60;49.90;;;;;;5114322;28;20034;-80
2023/08/23 00:57:52;;;;;;;1.88;1.55;;;25.50;49.80;;;;;;5115622;28;20027;-80
2023/08/23 01:00:18;;;;;;;2.17;1.70;;;25.50;49.80;;;;;;5114354;28;20466;-80
2023/08/23 01:02:44;;;;;;;1.90;1.60;;;25.50;49.80;;;;;;5095861;28;20035;-80
2023/08/23 01:05:10;;;;;;;1.63;1.50;;;25.60;49.80;;;;;;5095531;28;20124;-80
2023/08/23 01:07:49;;;;;;;2.80;1.83;;;25.60;49.80;;;;;;5095539;28;20366;-80
2023/08/23 01:10:42;;;;;;;2.08;1.40;;;25.60;49.80;;;;;;5108312;28;20469;-80
2023/08/23 01:13:20;;;;;;;1.58;1.48;;;25.70;49.80;;;;;;5095450;28;20468;-80
2023/08/23 01:15:46;;;;;;;1.92;1.55;;;25.70;49.70;;;;;;5095478;28;20091;-80
2023/08/23 01:18:14;;;;;;;2.50;1.58;;;25.70;49.70;;;;;;5095433;28;20024;-80
2023/08/23 01:20:40;;;;;;;2.50;1.60;;;25.70;49.70;;;;;;5111708;28;20065;-81
2023/08/23 01:23:12;;;;;;;1.58;1.42;;;25.70;49.70;;;;;;5114554;28;20027;-79
2023/08/23 01:25:48;;;;;;;2.25;1.60;;;25.70;49.60;;;;;;5095420;28;20058;-79
2023/08/23 01:28:13;;;;;;;1.77;1.52;;;25.70;49.70;;;;;;5106834;28;20068;-80
2023/08/23 01:30:39;;;;;;;1.83;1.60;;;25.70;50.30;;;;;;5115055;28;20063;-78
2023/08/23 01:33:23;;;;;;;1.73;1.60;;;25.70;49.70;;;;;;5113880;28;20541;-79
2023/08/23 01:36:13;;;;;;;1.52;1.42;;;25.70;49.70;;;;;;5114685;28;20023;-79
2023/08/23 01:38:41;;;;;;;1.58;1.48;;;25.70;49.70;;;;;;5115394;28;20059;-79
2023/08/23 01:41:06;;;;;;;1.50;1.40;;;25.70;49.60;;;;;;5113810;28;20428;-79
2023/08/23 01:43:33;;;;;;;2.00;1.60;;;25.70;49.70;;;;;;5114574;28;20028;-79
2023/08/23 01:45:58;;;;;;;1.60;1.45;;;25.80;49.70;;;;;;5115435;28;20118;-79
2023/08/23 01:48:24;;;;;;;3.38;1.73;;;25.70;49.60;;;;;;5114399;28;20091;-79
2023/08/23 01:50:52;;;;;;;1.90;1.48;;;25.80;49.70;;;;;;5114617;28;20033;-80
2023/08/23 01:53:17;;;;;;;1.67;1.55;;;25.70;49.50;;;;;;5114894;27;20063;-79
2023/08/23 01:55:43;;;;;;;2.17;1.80;;;25.80;49.70;;;;;;5114697;28;20031;-79
2023/08/23 01:58:08;;;;;;;1.52;1.30;;;25.80;49.70;;;;;;5114439;28;20381;-79
2023/08/23 02:00:34;;;;;;;1.70;1.60;;;25.80;49.60;;;;;;5114526;28;20497;-79
2023/08/23 02:03:01;;;;;;;1.83;1.73;;;25.80;49.70;;;;;;5114852;28;20408;-79
2023/08/23 02:05:29;;;;;;;1.77;1.33;;;25.70;49.60;;;;;;5114757;27;20023;-79
2023/08/23 02:07:54;;;;;;;1.48;1.38;;;25.70;49.60;;;;;;5113348;28;20055;-79
2023/08/23 02:10:20;;;;;;;1.70;1.60;;;25.70;49.60;;;;;;5113556;28;20116;-80
2023/08/23 02:12:47;;;;;;;1.95;1.60;;;25.70;49.70;;;;;;5114447;28;20036;-79
2023/08/23 02:15:13;;;;;;;2.67;1.50;;;25.70;49.70;;;;;;5114604;28;20114;-79
2023/08/23 02:17:38;;;;;;;2.03;1.55;;;25.70;49.70;;;;;;5113275;28;20063;-79
2023/08/23 02:20:05;;;;;;;1.70;1.60;;;25.70;49.70;;;;;;5111904;28;20040;-79
2023/08/23 02:22:31;;;;;;;1.48;1.20;;;25.70;49.70;;;;;;5114154;28;20557;-80
2023/08/23 02:24:56;;;;;;;1.65;1.55;;;25.70;49.70;;;;;;5114653;28;20107;-80
2023/08/23 02:27:22;;;;;;;2.15;1.65;;;25.70;49.70;;;;;;5113894;28;20099;-80
2023/08/23 02:29:48;;;;;;;2.58;1.40;;;25.70;49.70;;;;;;5114360;28;20024;-80
2023/08/23 02:32:13;;;;;;;3.72;1.50;;;25.60;49.60;;;;;;5113968;28;20032;-79
2023/08/23 02:34:39;;;;;;;2.13;1.60;;;25.60;49.70;;;;;;5114602;28;20077;-79
2023/08/23 02:37:04;;;;;;;1.52;1.42;;;25.60;49.70;;;;;;5112963;28;20453;-80
2023/08/23 02:39:30;;;;;;;2.17;1.70;;;25.60;49.70;;;;;;5112334;28;20435;-79
2023/08/23 02:41:56;;;;;;;2.08;1.60;;;25.60;49.70;;;;;;5114239;28;20032;-79
2023/08/23 02:44:21;;;;;;;2.45;1.60;;;25.60;49.70;;;;;;5114282;28;20030;-79
2023/08/23 02:46:47;;;;;;;2.03;1.80;;;25.60;49.80;;;;;;5114592;28;20031;-79
2023/08/23 02:49:12;;;;;;;1.75;1.60;;;25.50;49.70;;;;;;5113905;28;20465;-79
2023/08/23 02:51:38;;;;;;;2.08;1.88;;;25.50;49.70;;;;;;5112980;28;20039;-79
2023/08/23 02:54:04;;;;;;;1.67;1.58;;;25.60;49.80;;;;;;5114249;28;20035;-79
2023/08/23 02:56:30;;;;;;;1.80;1.70;;;25.50;49.70;;;;;;5113983;28;20038;-79
2023/08/23 02:58:55;;;;;;;2.20;1.73;;;25.50;49.70;;;;;;5115921;28;20102;-79
2023/08/23 03:01:21;;;;;;;2.03;1.70;;;25.50;49.80;;;;;;5118255;28;20112;-79
2023/08/23 03:03:46;;;;;;;1.85;1.65;;;25.50;49.70;;;;;;5118224;28;20055;-79
2023/08/23 03:06:12;;;;;;;2.00;1.80;;;25.60;49.80;;;;;;5118097;28;20081;-79
2023/08/23 03:08:38;;;;;;;1.73;1.60;;;25.50;49.70;;;;;;5117488;28;20028;-79
2023/08/23 03:11:05;;;;;;;2.67;1.85;;;25.50;49.70;;;;;;5117750;28;20114;-80
2023/08/23 03:13:31;;;;;;;2.03;1.50;;;25.50;49.70;;;;;;5116865;28;20032;-79
2023/08/23 03:15:56;;;;;;;1.58;1.48;;;25.60;49.80;;;;;;5118282;28;20100;-79
2023/08/23 03:18:22;;;;;;;1.95;1.50;;;25.60;49.80;;;;;;5117516;28;20427;-79
2023/08/23 03:20:49;;;;;;;1.70;1.60;;;25.50;49.60;;;;;;5116116;28;20054;-79
2023/08/23 03:23:16;;;;;;;1.60;1.50;;;25.50;49.60;;;;;;5116479;28;20023;-80
2023/08/23 03:25:45;;;;;;;1.60;1.45;;;25.50;49.50;;;;;;5117777;28;20038;-79
2023/08/23 03:28:10;;;;;;;1.80;1.42;;;25.40;49.40;;;;;;5117481;28;20019;-80
2023/08/23 03:30:36;;;;;;;1.38;1.20;;;25.40;49.60;;;;;;5117895;28;20030;-79
2023/08/23 03:33:02;;;;;;;1.65;1.55;;;25.40;49.60;;;;;;5116917;28;20438;-79
2023/08/23 03:35:28;;;;;;;1.83;1.33;;;25.30;49.50;;;;;;5117129;28;20055;-80
2023/08/23 03:37:53;;;;;;;1.80;1.38;;;25.30;49.50;;;;;;5116151;28;20023;-80
2023/08/23 03:40:19;;;;;;;1.50;1.40;;;25.20;49.50;;;;;;5117245;28;20422;-79
2023/08/23 03:42:44;;;;;;;1.50;1.40;;;25.00;49.60;;;;;;5116556;28;20499;-79
2023/08/23 03:45:11;;;;;;;1.80;1.48;;;24.90;49.70;;;;;;5117327;28;20118;-79
2023/08/23 03:47:37;;;;;;;1.90;1.45;;;24.90;49.90;;;;;;5117374;28;20031;-79
2023/08/23 03:50:03;;;;;;;1.38;1.27;;;24.80;49.90;;;;;;5116964;28;20045;-78
2023/08/23 03:52:29;;;;;;;2.03;1.35;;;24.80;50.00;;;;;;5116485;28;20043;-79
2023/08/23 03:54:54;;;;;;;1.67;1.35;;;24.80;50.00;;;;;;5115880;28;20031;-78
2023/08/23 03:57:20;;;;;;;1.50;1.30;;;24.80;50.20;;;;;;5115647;28;20027;-76
2023/08/23 03:59:45;;;;;;;1.80;1.20;;;24.80;50.30;;;;;;5116477;28;20027;-78
2023/08/23 04:02:11;;;;;;;1.30;1.20;;;24.90;50.30;;;;;;5116988;28;20473;-78
2023/08/23 04:04:37;;;;;;;1.20;1.10;;;25.00;50.30;;;;;;5116720;28;20066;-78
2023/08/23 04:07:02;;;;;;;1.70;1.15;;;25.00;50.20;;;;;;5116723;28;20125;-78
2023/08/23 04:09:28;;;;;;;1.58;1.30;;;25.10;50.20;;;;;;5115844;28;20446;-79
2023/08/23 04:11:54;;;;;;;1.88;1.30;;;25.10;50.20;;;;;;5116855;28;20351;-78
2023/08/23 04:14:19;;;;;;;1.65;1.55;;;25.10;50.10;;;;;;5115382;28;20210;-78
2023/08/23 04:16:45;;;;;;;1.10;1.10;;;25.10;50.10;;;;;;5115616;28;20165;-76
2023/08/23 04:19:10;;;;;;;1.10;1.10;;;25.10;50.10;;;;;;5112931;28;20423;-80
2023/08/23 04:21:36;;;;;;;1.10;1.00;;;25.10;50.10;;;;;;5096958;28;20458;-75
2023/08/23 04:24:02;;;;;;;1.27;1.15;;;25.10;50.10;;;;;;5114153;28;20038;-79
2023/08/23 04:26:27;;;;;;;1.92;1.30;;;25.10;50.20;;;;;;5115871;28;20031;-75
2023/08/23 04:28:53;;;;;;;1.73;1.42;;;25.10;50.20;;;;;;5114918;28;20381;-74
2023/08/23 04:31:19;;;;;;;1.63;1.52;;;25.10;50.20;;;;;;5116315;28;20054;-75
2023/08/23 04:33:45;;;;;;;1.73;1.30;;;25.20;50.40;;;;;;5116245;28;20095;-72
2023/08/23 04:36:10;;;;;;;1.50;1.40;;;25.20;50.30;;;;;;5116399;28;20027;-80
2023/08/23 04:38:36;;;;;;;1.92;1.42;;;25.20;50.40;;;;;;5115843;28;20373;-77
2023/08/23 04:41:03;;;;;;;3.25;1.40;;;25.20;50.40;;;;;;5116257;28;20032;-72
2023/08/23 04:43:29;;;;;;;1.23;1.13;;;25.20;50.40;;;;;;5116199;28;20504;-69
2023/08/23 04:45:55;;;;;;;2.75;1.30;;;25.30;50.50;;;;;;5114695;28;20028;-70
2023/08/23 04:48:21;;;;;;;1.42;1.33;;;25.20;50.40;;;;;;5115843;28;20094;-76
2023/08/23 04:50:59;;;;;;;1.40;1.30;;;25.30;50.50;;;;;;5114263;28;20066;-74
2023/08/23 04:53:25;;;;;;;2.10;1.42;;;25.30;50.50;;;;;;5115792;28;20035;-76
2023/08/23 04:55:58;;;;;;;1.55;1.45;;;25.30;50.50;;;;;;5115685;28;20016;-73
2023/08/23 04:58:29;;;;;;;1.65;1.55;;;25.30;50.50;;;;;;5113924;28;20512;-73
2023/08/23 05:00:59;;;;;;;1.35;1.25;;;25.30;50.60;;;;;;5115360;28;20034;-73
2023/08/23 05:03:29;;;;;;;1.60;1.38;;;25.30;50.60;;;;;;5115066;28;20024;-74
2023/08/23 05:05:54;;;;;;;3.40;1.23;;;25.40;50.60;;;;;;5113947;28;20031;-75
2023/08/23 05:08:20;;;;;;;1.50;1.30;;;25.40;50.60;;;;;;5115134;28;20024;-74
2023/08/23 05:10:51;;;;;;;2.45;1.48;;;25.40;50.70;;;;;;5115336;28;20036;-74
2023/08/23 05:13:17;;;;;;;1.88;1.30;;;25.40;50.70;;;;;;5130552;27;20043;-74
2023/08/23 05:15:43;;;;;;;2.03;1.40;;;25.40;50.80;;;;;;5114979;28;20028;-74
2023/08/23 05:18:08;;;;;;;1.42;1.25;;;25.40;50.90;;;;;;5114660;28;20792;-75
2023/08/23 05:20:36;;;;;;;2.13;1.45;;;25.40;51.00;;;;;;5114306;28;20043;-74
2023/08/23 05:23:02;;;;;;;1.95;1.15;;;25.40;51.00;;;;;;5113421;28;20031;-75
2023/08/23 05:25:28;;;;;;;1.58;1.10;;;25.40;51.00;;;;;;5113827;28;20093;-73
2023/08/23 05:27:54;;;;;;;1.60;1.30;;;25.40;51.00;;;;;;5114629;28;20112;-79
2023/08/23 05:30:19;;;;;;;1.58;1.40;;;25.40;51.00;;;;;;5113376;28;20122;-75
2023/08/23 05:32:45;;;;;;;2.28;1.67;;;25.50;51.10;;;;;;5114110;28;20027;-74
2023/08/23 05:35:11;;;;;;;2.92;1.30;;;25.50;51.00;;;;;;5114548;28;20468;-73
2023/08/23 05:37:36;;;;;;;3.35;1.40;;;25.60;51.10;;;;;;5114761;28;20474;-79
2023/08/23 05:40:03;;;;;;;1.23;1.10;;;25.60;51.10;;;;;;5114785;28;20028;-76
2023/08/23 05:42:30;;;;;;;1.77;1.08;;;25.60;51.00;;;;;;5114454;28;20072;-78
2023/08/23 05:44:56;;;;;;;1.52;1.30;;;25.70;50.90;;;;;;5114455;28;20031;-80
2023/08/23 05:47:22;;;;;;;1.40;0.90;;;25.80;50.90;;;;;;5113842;28;20164;-77
2023/08/23 05:49:47;;;;;;;0.90;0.90;;;25.90;50.80;;;;;;5114006;28;20023;-78
2023/08/23 05:52:13;;;;;;;3.03;1.05;;;25.90;50.60;;;;;;5113244;28;20111;-79
2023/08/23 05:54:39;;;;;;;0.90;0.85;;;25.90;50.70;;;;;;5114964;28;20096;-79
2023/08/23 05:57:05;;;;;;;0.95;0.95;;;25.90;50.60;;;;;;5114769;28;20031;-80
2023/08/23 05:59:30;;;;;;;2.35;1.20;;;25.90;50.70;;;;;;5113442;28;20035;-77
2023/08/23 06:01:56;;;;;;;1.48;1.10;;;25.90;50.70;;;;;;5114785;28;20032;-77
2023/08/23 06:04:22;;;;;;;1.30;1.13;;;25.80;50.60;;;;;;5115052;28;20051;-75
2023/08/23 06:06:47;;;;;;;1.23;1.00;;;25.70;50.70;;;;;;5114513;28;20028;-78
2023/08/23 06:09:13;;;;;;;1.40;1.30;;;25.70;50.80;;;;;;5114591;28;20031;-78
2023/08/23 06:11:39;;;;;;;1.73;1.30;;;25.70;50.90;;;;;;5114943;28;20070;-79
2023/08/23 06:14:22;;;;;;;1.88;1.05;;;25.60;51.00;;;;;;5114364;28;20181;-79
2023/08/23 06:16:48;;;;;;;1.95;1.35;;;25.60;51.20;;;;;;5114337;28;20107;-79
2023/08/23 06:19:14;;;;;;;1.08;1.00;;;25.70;51.20;;;;;;5113306;28;20465;-79
2023/08/23 06:21:41;;;;;;;1.52;1.30;;;25.60;51.10;;;;;;5114476;28;20134;-81
2023/08/23 06:24:07;;;;;;;1.17;1.10;;;25.60;51.10;;;;;;5114475;28;20038;-79
2023/08/23 06:26:33;;;;;;;1.73;1.30;;;25.60;51.30;;;;;;5114323;28;20046;-79
2023/08/23 06:28:59;;;;;;;2.97;1.35;;;25.70;52.10;;;;;;5113892;28;20027;-79
2023/08/23 06:31:24;;;;;;;1.42;1.05;;;25.70;51.50;;;;;;5114505;28;20035;-79
2023/08/23 06:33:50;;;;;;;1.33;0.93;;;25.80;51.50;;;;;;5113920;28;20024;-79
2023/08/23 06:36:16;;;;;;;1.20;1.10;;;25.80;51.40;;;;;;5113009;28;20028;-79
2023/08/23 06:38:41;;;;;;;1.80;1.13;;;25.90;51.30;;;;;;5114276;28;20030;-79
2023/08/23 06:41:07;;;;;;;1.48;0.95;;;26.00;51.50;;;;;;5113037;28;20042;-80
2023/08/23 06:43:33;;;;;;;1.00;0.90;;;26.00;52.10;;;;;;5113954;28;20031;-79
2023/08/23 06:46:00;;;;;;;1.40;1.30;;;26.10;51.30;;;;;;5114044;28;20060;-79
2023/08/23 06:48:26;;;;;;;1.40;1.27;;;26.20;51.20;;;;;;5114377;28;20019;-79
2023/08/23 06:50:52;;;;;;;1.30;1.20;;;26.30;51.20;;;;;;5113941;28;20166;-79
2023/08/23 06:53:17;;;;;;;1.20;1.10;;;26.40;51.10;;;;;;5112597;28;20043;-79
2023/08/23 06:55:43;;;;;;;1.33;1.23;;;26.40;51.00;;;;;;5114117;28;20039;-79
2023/08/23 06:58:09;;;;;;;1.55;1.40;;;26.40;50.70;;;;;;5114155;28;20061;-79
2023/08/23 07:00:35;;;;;;;1.48;1.23;;;26.30;50.60;;;;;;5113977;28;20024;-79
2023/08/23 07:03:01;;;;;;;1.58;1.48;;;26.30;50.70;;;;;;5112519;28;20032;-80
2023/08/23 07:05:27;;;;;;;1.40;1.30;;;26.20;50.70;;;;;;5113846;28;20422;-80
2023/08/23 07:07:53;;;;;;;1.38;1.20;;;26.20;50.80;;;;;;5114022;28;20028;-81
2023/08/23 07:10:20;;;;;;;1.55;1.10;;;26.20;51.00;;;;;;5114158;28;20028;-81
2023/08/23 07:12:45;;;;;;;0.90;0.90;;;26.20;51.00;;;;;;5113539;28;20032;-81
2023/08/23 07:15:11;;;;;;;1.48;1.17;;;26.20;51.00;;;;;;5114146;28;20119;-81
2023/08/23 07:17:36;;;;;;;2.00;1.27;;;26.20;50.90;;;;;;5113987;28;20031;-81
2023/08/23 07:20:06;;;;;;;1.63;1.30;;;26.30;51.00;;;;;;5113707;28;20070;-80
2023/08/23 07:22:32;;;;;;;2.40;1.38;;;26.30;50.80;;;;;;5113145;28;20442;-81
2023/08/23 07:24:57;;;;;;;1.00;1.00;;;26.10;50.60;;;;;;5111969;28;20035;-81
2023/08/23 07:27:23;;;;;;;1.30;1.20;;;26.10;50.60;;;;;;5113543;28;20028;-81
2023/08/23 07:29:49;;;;;;;2.03;1.40;;;26.10;50.60;;;;;;5113366;28;20043;-81
2023/08/23 07:32:15;;;;;;;1.33;1.23;;;26.10;50.80;;;;;;5113584;28;20462;-81
2023/08/23 07:34:40;;;;;;;1.20;1.10;;;26.10;50.50;;;;;;5113668;28;20024;-81
2023/08/23 07:37:06;;;;;;;1.10;1.10;;;26.00;50.50;;;;;;5113495;28;20055;-80
2023/08/23 07:39:32;;;;;;;1.40;1.20;;;26.00;50.50;;;;;;5113348;28;20046;-80
2023/08/23 07:41:58;;;;;;;1.35;1.25;;;26.00;50.50;;;;;;5112834;28;20028;-80
2023/08/23 07:44:24;;;;;;;2.33;1.33;;;26.00;50.60;;;;;;5114625;28;20030;-81
2023/08/23 07:46:49;;;;;;;0.95;0.93;;;26.10;50.70;;;;;;5117395;28;20043;-81
2023/08/23 07:49:15;;;;;;;1.45;1.23;;;26.10;50.50;;;;;;5117165;28;20108;-81
2023/08/23 07:51:41;;;;;;;1.38;1.20;;;26.10;50.50;;;;;;5115737;28;20389;-80
2023/08/23 07:54:07;;;;;;;1.17;1.00;;;26.20;50.50;;;;;;5116420;28;20023;-80
2023/08/23 07:56:33;;;;;;;1.10;1.00;;;26.20;50.50;;;;;;5115185;28;20050;-80
2023/08/23 07:58:59;;;;;;;1.98;1.00;;;26.30;50.50;;;;;;5116026;28;20098;-80
2023/08/23 08:01:25;;;;;;;1.20;1.10;;;26.30;50.30;;;;;;5114805;28;20134;-80
2023/08/23 08:03:51;;;;;;;1.67;1.10;;;26.30;49.90;;;;;;5115379;28;20034;-80
2023/08/23 08:06:17;;;;;;;1.38;0.98;;;26.20;49.70;;;;;;5116938;28;20024;-80
2023/08/23 08:08:43;;;;;;;1.20;1.02;;;26.10;49.70;;;;;;5117109;28;20023;-80
2023/08/23 08:11:14;;;;;;;2.30;1.00;;;26.10;49.70;;;;;;5116391;28;20381;-81
2023/08/23 08:13:40;;;;;;;1.20;1.00;;;26.10;49.80;;;;;;5115178;28;20106;-80
2023/08/23 08:16:11;;;;;;;1.60;1.20;;;26.10;49.70;;;;;;5116038;28;20058;-80
2023/08/23 08:18:37;;;;;;;1.30;1.20;;;26.00;49.50;;;;;;5116309;28;20023;-80
2023/08/23 08:21:03;;;;;;;1.73;1.20;;;26.00;49.60;;;;;;5116337;28;20039;-80
2023/08/23 08:23:31;;;;;;;1.10;1.00;;;26.00;49.70;;;;;;5115786;28;20103;-80
2023/08/23 08:25:57;;;;;;;2.05;0.90;;;26.10;49.70;;;;;;5116413;28;20486;-80
2023/08/23 08:28:23;;;;;;;1.15;0.98;;;26.20;49.70;;;;;;5116500;28;20035;-80
2023/08/23 08:30:49;;;;;;;1.05;1.00;;;26.20;49.50;;;;;;5116312;28;20024;-80
2023/08/23 08:33:15;;;;;;;0.98;0.85;;;26.30;49.50;;;;;;5115072;28;20031;-81
2023/08/23 08:35:41;;;;;;;0.77;0.77;;;26.40;49.30;;;;;;5116057;28;20055;-80
2023/08/23 08:38:07;;;;;;;1.23;1.00;;;26.40;49.20;;;;;;5116097;28;20096;-81
2023/08/23 08:40:32;;;;;;;1.10;0.80;;;26.50;49.10;;;;;;5115952;28;20529;-80
2023/08/23 08:43:01;;;;;;;1.67;1.00;;;26.60;49.00;;;;;;5116473;28;20039;-80
2023/08/23 08:45:27;;;;;;;1.02;1.02;;;26.60;48.90;;;;;;5116041;28;20046;-81
2023/08/23 08:47:53;;;;;;;1.13;0.90;;;26.70;48.70;;;;;;5116258;28;20446;-81
2023/08/23 08:50:19;;;;;;;2.05;1.10;;;26.70;48.70;;;;;;5115914;28;20473;-80
2023/08/23 08:52:55;;;;;;;1.42;1.00;;;26.80;48.70;;;;;;5115260;28;20458;-80
2023/08/23 08:55:22;;;;;;;1.20;0.90;;;26.90;48.70;;;;;;5115756;28;20031;-80
2023/08/23 08:57:52;;;;;;;2.03;1.20;;;26.90;48.70;;;;;;5115601;28;20349;-81
2023/08/23 09:00:21;;;;;;;1.38;1.10;;;27.00;48.60;;;;;;5114598;28;20023;-81
2023/08/23 09:02:49;;;;;;;1.20;1.10;;;27.00;48.50;;;;;;5115408;28;20031;-81
2023/08/23 09:05:16;;;;;;;1.10;1.00;;;27.00;48.30;;;;;;5115606;28;20020;-81
2023/08/23 09:07:42;;;;;;;1.75;1.10;;;27.00;48.40;;;;;;5116021;28;20462;-81
2023/08/23 09:10:08;;;;;;;1.08;0.98;;;27.10;48.50;;;;;;5115924;28;20037;-81
2023/08/23 09:12:34;;;;;;;0.80;0.80;;;27.10;48.30;;;;;;5114598;28;20042;-81
2023/08/23 09:15:07;;;;;;;1.25;1.10;;;27.20;48.40;;;;;;5115598;28;20024;-81
2023/08/23 09:17:34;;;;;;;1.25;1.00;;;27.20;48.30;;;;;;5115454;28;20023;-81
2023/08/23 09:20:07;;;;;;;1.23;1.08;;;27.20;48.10;;;;;;5113917;28;20044;-81
2023/08/23 09:22:33;;;;;;;1.50;1.00;;;27.20;48.10;;;;;;5115146;28;20549;-81
2023/08/23 09:25:00;;;;;;;1.23;1.10;;;27.20;48.10;;;;;;5114859;28;20059;-81
2023/08/23 09:27:26;;;;;;;1.17;1.08;;;27.10;48.20;;;;;;5114839;28;20077;-81
2023/08/23 09:29:56;;;;;;;1.40;1.23;;;27.10;48.20;;;;;;5115010;28;20032;-81
2023/08/23 09:32:21;;;;;;;1.13;1.10;;;27.10;48.10;;;;;;5113585;28;20039;-81
2023/08/23 09:34:47;;;;;;;3.15;1.10;;;27.10;48.10;;;;;;5114988;28;20015;-80
2023/08/23 09:37:13;;;;;;;1.00;1.00;;;27.10;48.00;;;;;;5114993;28;20058;-80
2023/08/23 09:39:38;;;;;;;1.77;1.10;;;27.10;48.00;;;;;;5114993;28;20027;-80
2023/08/23 09:42:13;;;;;;;0.80;0.80;;;27.10;48.00;;;;;;5115068;28;20027;-80
2023/08/23 09:44:43;;;;;;;0.77;0.77;;;27.10;47.80;;;;;;5115282;28;20072;-80
2023/08/23 09:47:17;;;;;;;0.90;0.90;;;27.00;47.90;;;;;;5114821;28;20042;-81
2023/08/23 09:49:44;;;;;;;0.90;0.80;;;27.00;47.80;;;;;;5114879;28;20020;-81
2023/08/23 09:52:13;;;;;;;1.45;1.02;;;27.00;47.80;;;;;;5112559;28;20039;-80
2023/08/23 09:55:02;;;;;;;0.80;0.80;;;27.00;47.70;;;;;;5113378;28;20381;-80
2023/08/23 09:57:28;;;;;;;1.00;0.80;;;27.10;47.60;;;;;;5114512;28;20031;-81
2023/08/23 09:59:54;;;;;;;0.70;0.70;;;27.10;47.70;;;;;;5114216;28;20427;-80
2023/08/23 10:02:20;;;;;;;1.10;0.77;;;27.10;47.60;;;;;;5114653;28;20106;-80
2023/08/23 10:04:46;;;;;;;0.88;0.88;;;27.20;47.50;;;;;;5114499;28;20110;-81
2023/08/23 10:07:13;;;;;;;0.93;0.80;;;27.20;47.40;;;;;;5113960;28;20024;-81
2023/08/23 10:09:40;;;;;;;0.93;0.88;;;27.30;47.30;;;;;;5114112;28;20031;-81
2023/08/23 10:12:08;;;;;;;1.23;0.90;;;27.30;47.10;;;;;;5112935;28;20040;-80
2023/08/23 10:14:39;;;;;;;0.80;0.80;;;27.30;47.00;;;;;;5113054;28;20469;-82
2023/08/23 10:17:06;;;;;;;1.58;1.05;;;27.30;47.00;;;;;;5114675;28;20032;-80
2023/08/23 10:19:32;;;;;;;1.38;0.90;;;27.40;47.10;;;;;;5114433;28;20034;-80
2023/08/23 10:21:58;;;;;;;1.40;0.90;;;27.40;47.10;;;;;;5114122;28;20450;-81
2023/08/23 10:24:34;;;;;;;1.80;1.00;;;27.40;47.00;;;;;;5113720;28;20032;-80
2023/08/23 10:27:07;;;;;;;0.80;0.80;;;27.50;47.00;;;;;;5114569;28;20051;-80
2023/08/23 10:29:37;;;;;;;1.05;0.90;;;27.50;47.00;;;;;;5114129;28;20020;-80
2023/08/23 10:32:10;;;;;;;1.15;0.70;;;27.50;47.00;;;;;;5113105;28;20035;-79
2023/08/23 10:34:37;;;;;;;0.50;0.50;;;27.60;47.60;;;;;;5114217;28;20089;-80
2023/08/23 10:37:21;;;;;;;0.80;0.80;;;27.60;46.90;;;;;;5113990;28;20062;-80
2023/08/23 10:39:48;;;;;;;0.80;0.80;;;27.70;46.70;;;;;;5112733;28;20024;-80
2023/08/23 10:42:14;;;;;;;0.90;0.90;;;27.70;46.70;;;;;;5113985;28;20031;-80
2023/08/23 10:44:57;;;;;;;1.40;0.93;;;27.80;46.70;;;;;;5114599;28;20020;-81
2023/08/23 10:47:23;;;;;;;1.13;1.00;;;27.80;46.60;;;;;;5113907;28;20028;-81
2023/08/23 10:49:50;;;;;;;0.85;0.80;;;27.90;46.70;;;;;;5113907;28;20024;-80
2023/08/23 10:52:16;;;;;;;0.80;0.70;;;28.00;46.60;;;;;;5113635;28;20031;-81
2023/08/23 10:54:42;;;;;;;1.60;0.90;;;28.00;46.60;;;;;;5113968;28;20069;-81
2023/08/23 10:57:08;;;;;;;0.80;0.80;;;28.00;46.50;;;;;;5113651;28;20379;-80
2023/08/23 10:59:34;;;;;;;1.25;1.15;;;28.00;46.50;;;;;;5114215;28;20027;-80
2023/08/23 11:02:00;;;;;;;1.38;1.08;;;28.00;46.50;;;;;;5113565;28;20098;-81
2023/08/23 11:04:26;;;;;;;0.90;0.90;;;28.10;46.60;;;;;;5113874;28;20027;-81
2023/08/23 11:06:52;;;;;;;0.82;0.82;;;28.10;46.40;;;;;;5113693;28;20020;-80
2023/08/23 11:09:18;;;;;;;1.10;1.00;;;28.10;46.30;;;;;;5113537;28;20028;-80
2023/08/23 11:11:44;;;;;;;0.75;0.75;;;28.10;46.40;;;;;;5112352;28;20066;-81
2023/08/23 11:14:10;;;;;;;1.13;0.90;;;28.20;46.50;;;;;;5113064;28;20473;-81
2023/08/23 11:16:35;;;;;;;2.00;1.00;;;28.20;46.40;;;;;;5113386;28;20405;-80
2023/08/23 11:19:08;;;;;;;1.50;1.05;;;28.20;46.40;;;;;;5114216;28;20024;-80
2023/08/23 11:21:33;;;;;;;0.85;0.85;;;28.20;47.00;;;;;;5117888;28;20055;-80
2023/08/23 11:24:06;;;;;;;1.85;0.95;;;28.30;46.30;;;;;;5117864;28;20358;-80
2023/08/23 11:26:37;;;;;;;1.90;1.13;;;28.30;46.30;;;;;;5117376;28;20038;-80
2023/08/23 11:29:04;;;;;;;1.10;1.00;;;28.30;46.30;;;;;;5117327;28;20362;-80
2023/08/23 11:31:35;;;;;;;1.70;1.00;;;28.40;46.30;;;;;;5117536;28;20023;-81
2023/08/23 11:34:08;;;;;;;1.42;1.17;;;28.40;46.20;;;;;;5116490;28;20405;-80
2023/08/23 11:36:37;;;;;;;1.23;1.00;;;28.40;46.10;;;;;;5117190;28;20028;-81
2023/08/23 11:39:06;;;;;;;3.15;1.25;;;28.40;46.20;;;;;;5117275;28;20080;-81
2023/08/23 11:41:33;;;;;;;1.15;1.05;;;28.40;46.20;;;;;;5117025;27;20016;-80
2023/08/23 11:44:06;;;;;;;1.77;1.17;;;28.50;46.20;;;;;;5117109;28;20415;-80
2023/08/23 11:46:40;;;;;;;1.13;0.98;;;28.60;46.10;;;;;;5115808;28;20030;-80
2023/08/23 11:49:07;;;;;;;1.42;1.17;;;28.60;46.10;;;;;;5115737;28;20028;-82
2023/08/23 11:51:48;;;;;;;0.88;0.88;;;28.60;45.90;;;;;;5116621;28;20028;-81
2023/08/23 11:54:14;;;;;;;1.00;1.00;;;28.70;45.80;;;;;;5115781;28;20059;-81
2023/08/23 11:56:44;;;;;;;1.10;1.00;;;28.70;45.90;;;;;;5117336;28;20027;-81
2023/08/23 11:59:11;;;;;;;0.85;0.85;;;28.70;45.90;;;;;;5116104;28;20440;-81
2023/08/23 12:01:38;;;;;;;1.00;0.90;;;28.70;45.90;;;;;;5115302;28;20031;-81
2023/08/23 12:04:07;;;;;;;0.90;0.90;;;28.70;45.90;;;;;;5116866;28;20028;-81
2023/08/23 12:06:33;;;;;;;0.80;0.80;;;28.60;45.70;;;;;;5116794;28;20027;-80
2023/08/23 12:08:58;;;;;;;1.02;0.93;;;28.60;45.80;;;;;;5117174;28;20028;-81
2023/08/23 12:11:24;;;;;;;0.90;0.90;;;28.60;45.80;;;;;;5116666;28;20104;-81
2023/08/23 12:13:50;;;;;;;1.13;0.98;;;28.60;45.80;;;;;;5116722;28;20477;-81
2023/08/23 12:16:15;;;;;;;1.10;0.80;;;28.60;45.80;;;;;;5116507;28;20050;-81
2023/08/23 12:18:41;;;;;;;1.08;0.98;;;28.50;45.80;;;;;;5116616;28;20030;-81
2023/08/23 12:21:07;;;;;;;0.70;0.70;;;28.50;45.80;;;;;;5114954;28;20120;-80
2023/08/23 12:23:32;;;;;;;1.17;0.93;;;28.50;45.80;;;;;;5115311;28;20043;-80
2023/08/23 12:25:58;;;;;;;1.10;1.00;;;28.50;45.80;;;;;;5116743;28;20092;-80
2023/08/23 12:28:24;;;;;;;0.90;0.80;;;28.50;45.70;;;;;;5116286;28;20345;-80
2023/08/23 12:30:50;;;;;;;0.70;0.70;;;28.50;45.70;;;;;;5115266;28;20031;-82
2023/08/23 12:33:15;;;;;;;1.00;0.90;;;28.50;45.60;;;;;;5116182;28;20031;-81
2023/08/23 12:35:41;;;;;;;1.20;1.10;;;28.50;46.00;;;;;;5116081;28;20436;-81
2023/08/23 12:38:07;;;;;;;0.80;0.80;;;28.50;45.60;;;;;;5116729;28;20023;-81
2023/08/23 12:40:33;;;;;;;0.80;0.80;;;28.60;45.60;;;;;;5114764;28;20076;-82
2023/08/23 12:42:59;;;;;;;2.72;0.90;;;28.60;45.50;;;;;;5116379;28;20027;-80
2023/08/23 12:45:24;;;;;;;1.00;0.80;;;28.70;45.50;;;;;;5116289;28;20034;-80
2023/08/23 12:47:50;;;;;;;1.05;1.00;;;28.80;45.50;;;;;;5116244;28;20420;-80